Time;durP1;ratioP1;P1;durP2;ratioP2;P2;SDS_P1;SDS_P2;PMS_P1;PMS_P2;Temp;Humidity;BMP_temperature;BMP_pressure;BME280_temperature;BME280_humidity;BME280_pressure;Samples;Min_cycle;Max_cycle;Signal;HPM_P1;HPM_P2
2021/08/08 00:00:43;;;;;;;5.30;2.00;;;;;;;;;;5061311;28;20204;-71
2021/08/08 00:03:10;;;;;;;5.63;2.17;;;;;;;;;;5069402;28;20195;-70
2021/08/08 00:05:37;;;;;;;3.20;1.70;;;;;;;;;;5059368;28;20199;-70
2021/08/08 00:08:04;;;;;;;2.33;2.00;;;;;;;;;;5063876;28;20219;-70
2021/08/08 00:10:30;;;;;;;2.90;1.90;;;;;;;;;;5049550;28;20208;-72
2021/08/08 00:12:57;;;;;;;2.93;1.73;;;;;;;;;;5049935;28;20199;-70
2021/08/08 00:15:24;;;;;;;3.30;1.83;;;;;;;;;;5049564;28;20617;-70
2021/08/08 00:17:51;;;;;;;3.17;1.73;;;;;;;;;;5050111;28;20758;-72
2021/08/08 00:20:19;;;;;;;5.60;1.87;;;;;;;;;;5053515;28;20203;-70
2021/08/08 00:22:45;;;;;;;1.67;1.50;;;;;;;;;;5070016;28;20282;-69
2021/08/08 00:25:12;;;;;;;1.77;1.60;;;;;;;;;;5054907;28;20192;-71
2021/08/08 00:27:39;;;;;;;2.47;1.80;;;;;;;;;;5060190;28;20188;-68
2021/08/08 00:30:08;;;;;;;3.00;2.00;;;;;;;;;;5062655;28;20267;-68
2021/08/08 00:32:37;;;;;;;2.13;1.90;;;;;;;;;;5058496;28;20662;-71
2021/08/08 00:35:05;;;;;;;3.27;1.70;;;;;;;;;;5067622;28;20909;-69
2021/08/08 00:37:32;;;;;;;2.40;1.60;;;;;;;;;;5068234;28;20195;-68
2021/08/08 00:40:01;;;;;;;2.00;1.60;;;;;;;;;;5054332;28;20228;-68
2021/08/08 00:42:29;;;;;;;1.93;1.73;;;;;;;;;;5061960;28;20255;-70
2021/08/08 00:44:58;;;;;;;3.07;1.83;;;;;;;;;;5060277;28;20291;-69
2021/08/08 00:47:26;;;;;;;2.30;2.10;;;;;;;;;;5063486;28;20295;-69
2021/08/08 00:49:53;;;;;;;2.20;1.97;;;;;;;;;;5055989;28;20192;-70
2021/08/08 00:52:20;;;;;;;2.10;1.80;;;;;;;;;;5055011;28;20830;-69
2021/08/08 00:54:47;;;;;;;2.10;1.80;;;;;;;;;;5053881;28;20211;-69
2021/08/08 00:57:17;;;;;;;3.10;1.87;;;;;;;;;;5068073;28;20196;-69
2021/08/08 00:59:46;;;;;;;2.10;1.90;;;;;;;;;;5049132;28;20189;-70
2021/08/08 01:02:13;;;;;;;3.73;2.17;;;;;;;;;;5055392;28;20201;-72
2021/08/08 01:04:44;;;;;;;1.67;1.57;;;;;;;;;;5051414;28;20277;-69
2021/08/08 01:07:18;;;;;;;3.00;1.90;;;;;;;;;;5061315;28;20882;-68
2021/08/08 01:09:48;;;;;;;2.00;1.70;;;;;;;;;;5068849;28;20192;-69
2021/08/08 01:12:17;;;;;;;2.20;2.00;;;;;;;;;;5052046;28;20258;-69
2021/08/08 01:14:49;;;;;;;2.00;1.80;;;;;;;;;;5052904;28;20274;-70
2021/08/08 01:17:17;;;;;;;2.33;2.00;;;;;;;;;;5071499;28;20200;-71
2021/08/08 01:20:13;;;;;;;2.30;1.87;;;;;;;;;;5056719;28;20254;-69
2021/08/08 01:23:04;;;;;;;3.80;1.93;;;;;;;;;;5070054;28;20638;-70
2021/08/08 01:25:33;;;;;;;4.07;1.93;;;;;;;;;;5050959;28;20204;-69
2021/08/08 01:28:01;;;;;;;5.37;2.10;;;;;;;;;;5064643;28;20726;-69
2021/08/08 01:30:33;;;;;;;3.50;2.10;;;;;;;;;;5056548;28;20200;-69
2021/08/08 01:33:04;;;;;;;3.37;2.20;;;;;;;;;;5071339;28;20192;-68
2021/08/08 01:35:35;;;;;;;2.83;1.97;;;;;;;;;;5065404;28;20235;-70
2021/08/08 01:38:03;;;;;;;9.67;2.40;;;;;;;;;;5062934;28;20570;-70
2021/08/08 01:40:37;;;;;;;3.70;2.50;;;;;;;;;;5066471;28;20667;-69
2021/08/08 01:43:07;;;;;;;3.50;2.37;;;;;;;;;;5051029;28;20629;-69
2021/08/08 01:45:38;;;;;;;8.60;2.50;;;;;;;;;;5064537;28;20307;-70
2021/08/08 01:48:08;;;;;;;3.80;2.40;;;;;;;;;;5050558;28;20211;-69
2021/08/08 01:50:35;;;;;;;3.83;2.43;;;;;;;;;;5063310;28;20303;-70
2021/08/08 01:53:06;;;;;;;2.73;2.27;;;;;;;;;;5070805;28;20198;-69
2021/08/08 01:55:34;;;;;;;2.67;2.37;;;;;;;;;;5071729;28;20647;-70
2021/08/08 01:58:05;;;;;;;7.97;2.50;;;;;;;;;;5066444;28;20196;-71
2021/08/08 02:00:33;;;;;;;4.20;2.33;;;;;;;;;;5061115;28;20206;-69
2021/08/08 02:03:11;;;;;;;3.93;2.10;;;;;;;;;;5070491;28;20192;-70
2021/08/08 02:05:46;;;;;;;5.73;2.10;;;;;;;;;;5058655;28;20204;-70
2021/08/08 02:08:17;;;;;;;3.27;2.30;;;;;;;;;;5064193;28;20204;-69
2021/08/08 02:11:07;;;;;;;12.37;2.70;;;;;;;;;;5050141;28;20208;-69
2021/08/08 02:13:41;;;;;;;4.13;2.30;;;;;;;;;;5056994;28;20192;-69
2021/08/08 02:16:08;;;;;;;2.70;2.33;;;;;;;;;;5070074;28;20245;-71
2021/08/08 02:18:37;;;;;;;4.67;2.10;;;;;;;;;;5050935;28;20200;-70
2021/08/08 02:21:03;;;;;;;5.17;2.47;;;;;;;;;;5049975;28;20295;-70
2021/08/08 02:23:32;;;;;;;3.40;2.60;;;;;;;;;;5053301;28;20234;-69
2021/08/08 02:26:01;;;;;;;4.90;2.53;;;;;;;;;;5059377;28;20251;-69
2021/08/08 02:28:32;;;;;;;4.40;2.23;;;;;;;;;;5050155;28;20197;-69
2021/08/08 02:30:59;;;;;;;4.37;2.40;;;;;;;;;;5049570;28;20648;-70
2021/08/08 02:33:27;;;;;;;10.73;2.33;;;;;;;;;;5064087;28;20196;-70
2021/08/08 02:35:55;;;;;;;3.43;2.67;;;;;;;;;;5051913;28;20224;-70
2021/08/08 02:38:25;;;;;;;2.43;2.17;;;;;;;;;;5064383;28;20210;-70
2021/08/08 02:40:57;;;;;;;4.70;2.20;;;;;;;;;;5069099;28;20689;-71
2021/08/08 02:43:24;;;;;;;5.40;2.60;;;;;;;;;;5069985;28;20227;-69
2021/08/08 02:45:51;;;;;;;8.87;2.43;;;;;;;;;;5049410;28;20185;-69
2021/08/08 02:48:18;;;;;;;5.00;2.50;;;;;;;;;;5053590;28;20218;-70
2021/08/08 02:50:45;;;;;;;4.70;2.30;;;;;;;;;;5048736;28;20295;-71
2021/08/08 02:53:13;;;;;;;3.77;2.50;;;;;;;;;;5055865;28;20204;-70
2021/08/08 02:55:42;;;;;;;4.50;2.47;;;;;;;;;;5056490;28;20282;-70
2021/08/08 02:58:09;;;;;;;3.60;2.30;;;;;;;;;;5064953;28;20199;-71
2021/08/08 03:00:38;;;;;;;4.63;2.20;;;;;;;;;;5049239;28;20196;-70
2021/08/08 03:03:06;;;;;;;4.87;2.73;;;;;;;;;;5049356;28;20197;-70
2021/08/08 03:05:34;;;;;;;5.13;2.70;;;;;;;;;;5049004;28;20262;-71
2021/08/08 03:08:03;;;;;;;5.80;2.50;;;;;;;;;;5051711;28;20218;-70
2021/08/08 03:10:30;;;;;;;4.50;2.63;;;;;;;;;;5060275;28;20212;-70
2021/08/08 03:12:57;;;;;;;3.90;2.30;;;;;;;;;;5064088;28;20592;-70
2021/08/08 03:15:24;;;;;;;5.77;2.70;;;;;;;;;;5068443;28;20757;-69
2021/08/08 03:17:51;;;;;;;4.20;2.70;;;;;;;;;;5069318;28;20199;-68
2021/08/08 03:20:21;;;;;;;9.03;3.17;;;;;;;;;;5054371;28;20192;-69
2021/08/08 03:22:51;;;;;;;5.00;2.80;;;;;;;;;;5056679;28;20263;-70
2021/08/08 03:25:19;;;;;;;4.33;2.30;;;;;;;;;;5061705;28;20663;-71
2021/08/08 03:27:50;;;;;;;6.17;2.67;;;;;;;;;;5049359;28;20200;-69
2021/08/08 03:30:19;;;;;;;5.43;2.83;;;;;;;;;;5047963;28;20682;-70
2021/08/08 03:32:46;;;;;;;4.67;2.90;;;;;;;;;;5050556;28;20262;-69
2021/08/08 03:35:13;;;;;;;7.20;3.10;;;;;;;;;;5064544;28;20240;-70
2021/08/08 03:37:40;;;;;;;7.27;3.10;;;;;;;;;;5068631;28;20206;-70
2021/08/08 03:40:07;;;;;;;4.50;3.07;;;;;;;;;;5068348;28;20298;-70
2021/08/08 03:42:34;;;;;;;4.27;3.03;;;;;;;;;;5068373;28;20285;-69
2021/08/08 03:45:03;;;;;;;5.53;3.17;;;;;;;;;;5068406;28;20208;-69
2021/08/08 03:47:34;;;;;;;7.67;3.30;;;;;;;;;;5063174;28;20291;-71
2021/08/08 03:50:05;;;;;;;6.53;3.13;;;;;;;;;;5032154;28;20207;-70
2021/08/08 03:52:32;;;;;;;5.83;3.10;;;;;;;;;;5049202;28;20200;-71
2021/08/08 03:54:59;;;;;;;6.87;2.90;;;;;;;;;;5068056;28;20273;-71
2021/08/08 03:57:26;;;;;;;3.50;3.13;;;;;;;;;;5057112;28;20200;-69
2021/08/08 03:59:57;;;;;;;6.73;3.27;;;;;;;;;;5071042;28;20192;-70
2021/08/08 04:02:25;;;;;;;5.53;3.30;;;;;;;;;;5068937;28;20264;-69
2021/08/08 04:04:52;;;;;;;5.20;3.27;;;;;;;;;;5063424;28;20200;-70
2021/08/08 04:07:19;;;;;;;8.97;3.30;;;;;;;;;;5048881;28;20295;-70
2021/08/08 04:09:45;;;;;;;9.13;3.50;;;;;;;;;;5047921;28;20617;-69
2021/08/08 04:12:12;;;;;;;6.80;3.50;;;;;;;;;;5049755;28;20325;-70
2021/08/08 04:14:41;;;;;;;6.33;3.27;;;;;;;;;;5050434;28;20215;-70
2021/08/08 04:17:08;;;;;;;6.77;3.40;;;;;;;;;;5068278;28;20196;-69
2021/08/08 04:19:35;;;;;;;8.97;3.83;;;;;;;;;;5068451;28;20196;-69
2021/08/08 04:22:03;;;;;;;6.70;3.40;;;;;;;;;;5061948;28;20565;-70
2021/08/08 04:24:29;;;;;;;6.17;3.20;;;;;;;;;;5049542;28;20200;-69
2021/08/08 04:26:57;;;;;;;6.23;3.63;;;;;;;;;;5047961;28;20283;-69
2021/08/08 04:29:24;;;;;;;4.40;2.93;;;;;;;;;;5048694;28;20246;-70
2021/08/08 04:31:51;;;;;;;7.53;3.30;;;;;;;;;;5047590;28;20205;-71
2021/08/08 04:34:18;;;;;;;5.77;3.10;;;;;;;;;;5058397;28;20237;-70
2021/08/08 04:36:45;;;;;;;3.83;3.07;;;;;;;;;;5056365;28;20200;-70
2021/08/08 04:39:12;;;;;;;7.80;3.50;;;;;;;;;;5065513;28;20305;-69
2021/08/08 04:41:40;;;;;;;6.33;3.43;;;;;;;;;;5051480;28;20224;-68
2021/08/08 04:44:07;;;;;;;5.47;3.00;;;;;;;;;;5051964;28;20200;-70
2021/08/08 04:46:34;;;;;;;7.93;2.80;;;;;;;;;;5063421;28;20760;-70
2021/08/08 04:49:01;;;;;;;5.83;3.13;;;;;;;;;;5058066;28;20563;-71
2021/08/08 04:51:28;;;;;;;3.33;2.73;;;;;;;;;;5071200;28;20654;-72
2021/08/08 04:53:55;;;;;;;7.23;3.00;;;;;;;;;;5060349;28;20223;-70
2021/08/08 04:56:22;;;;;;;6.40;3.27;;;;;;;;;;5055662;28;20314;-70
2021/08/08 04:58:49;;;;;;;5.97;2.97;;;;;;;;;;5071759;28;20231;-70
2021/08/08 05:01:15;;;;;;;7.17;2.93;;;;;;;;;;5068663;28;20188;-69
2021/08/08 05:03:43;;;;;;;5.33;3.10;;;;;;;;;;5053936;28;20196;-70
2021/08/08 05:06:09;;;;;;;3.30;2.63;;;;;;;;;;5065962;28;20188;-70
2021/08/08 05:08:36;;;;;;;4.73;2.90;;;;;;;;;;5052207;28;20634;-70
2021/08/08 05:11:03;;;;;;;28.33;4.40;;;;;;;;;;5050067;28;20291;-70
2021/08/08 05:13:31;;;;;;;12.27;3.03;;;;;;;;;;5051929;28;20204;-71
2021/08/08 05:16:00;;;;;;;7.63;2.77;;;;;;;;;;5050106;28;20252;-71
2021/08/08 05:18:27;;;;;;;5.57;2.93;;;;;;;;;;5062509;28;20706;-71
2021/08/08 05:20:54;;;;;;;8.93;2.87;;;;;;;;;;5053232;28;20213;-73
2021/08/08 05:23:21;;;;;;;4.83;2.53;;;;;;;;;;5056522;28;20200;-71
2021/08/08 05:25:49;;;;;;;5.23;3.10;;;;;;;;;;5065334;28;20199;-73
2021/08/08 05:28:16;;;;;;;3.93;2.93;;;;;;;;;;5065403;28;20196;-72
2021/08/08 05:30:43;;;;;;;4.20;2.90;;;;;;;;;;5050635;28;20231;-71
2021/08/08 05:33:10;;;;;;;3.00;2.70;;;;;;;;;;5064046;28;20250;-71
2021/08/08 05:35:38;;;;;;;7.30;2.70;;;;;;;;;;5066280;28;20243;-74
2021/08/08 05:38:05;;;;;;;3.73;2.43;;;;;;;;;;5053617;28;20244;-73
2021/08/08 05:40:32;;;;;;;18.53;14.90;;;;;;;;;;5068089;28;20281;-72
2021/08/08 05:42:59;;;;;;;14.40;10.83;;;;;;;;;;5062002;28;20243;-73
2021/08/08 05:45:26;;;;;;;5.73;3.47;;;;;;;;;;5051723;28;20234;-71
2021/08/08 05:47:55;;;;;;;5.67;3.60;;;;;;;;;;5053517;28;20197;-73
2021/08/08 05:50:26;;;;;;;4.67;2.33;;;;;;;;;;5049788;28;20635;-71
2021/08/08 05:52:55;;;;;;;8.00;3.07;;;;;;;;;;5063995;28;20242;-72
2021/08/08 05:55:23;;;;;;;4.63;3.10;;;;;;;;;;5049300;28;20224;-71
2021/08/08 05:57:50;;;;;;;5.47;2.80;;;;;;;;;;5052660;28;20196;-71
2021/08/08 06:00:18;;;;;;;3.77;3.07;;;;;;;;;;5055016;28;20196;-71
2021/08/08 06:02:53;;;;;;;4.47;2.80;;;;;;;;;;5051758;28;20204;-73
2021/08/08 06:05:23;;;;;;;5.07;2.50;;;;;;;;;;5055548;28;20257;-71
2021/08/08 06:07:51;;;;;;;5.43;3.00;;;;;;;;;;5064642;28;20233;-72
2021/08/08 06:10:18;;;;;;;5.93;2.30;;;;;;;;;;5061805;28;20188;-72
2021/08/08 06:12:46;;;;;;;5.20;2.60;;;;;;;;;;5064378;28;20202;-73
2021/08/08 06:15:12;;;;;;;2.50;2.30;;;;;;;;;;5062775;28;20278;-71
2021/08/08 06:17:40;;;;;;;5.50;2.47;;;;;;;;;;5058589;28;20203;-72
2021/08/08 06:20:07;;;;;;;6.53;2.60;;;;;;;;;;5069424;28;20241;-73
2021/08/08 06:22:37;;;;;;;3.83;2.47;;;;;;;;;;5058857;28;20778;-74
2021/08/08 06:25:04;;;;;;;5.23;2.10;;;;;;;;;;5052439;28;20996;-71
2021/08/08 06:27:30;;;;;;;7.70;2.20;;;;;;;;;;5056780;28;20196;-71
2021/08/08 06:29:58;;;;;;;4.97;2.53;;;;;;;;;;5068157;28;20196;-70
2021/08/08 06:32:25;;;;;;;4.67;2.23;;;;;;;;;;5069671;28;20196;-71
2021/08/08 06:34:52;;;;;;;4.13;2.33;;;;;;;;;;5063867;28;20288;-69
2021/08/08 06:37:19;;;;;;;3.30;2.30;;;;;;;;;;5059392;28;20197;-68
2021/08/08 06:39:46;;;;;;;5.67;2.70;;;;;;;;;;5048980;28;20621;-72
2021/08/08 06:42:12;;;;;;;3.50;2.83;;;;;;;;;;5052251;28;20224;-71
2021/08/08 06:44:45;;;;;;;3.47;2.50;;;;;;;;;;5048880;28;20200;-70
2021/08/08 06:47:12;;;;;;;31.60;27.17;;;;;;;;;;5051690;28;20695;-72
2021/08/08 06:49:38;;;;;;;73.40;65.47;;;;;;;;;;5051787;28;20189;-76
2021/08/08 06:52:06;;;;;;;23.03;20.23;;;;;;;;;;5053587;28;20226;-71
2021/08/08 06:54:33;;;;;;;8.00;5.67;;;;;;;;;;5060423;28;20253;-73
2021/08/08 06:57:00;;;;;;;6.83;5.23;;;;;;;;;;5059179;28;20251;-70
2021/08/08 06:59:30;;;;;;;4.03;3.47;;;;;;;;;;5053216;28;20238;-72
2021/08/08 07:01:58;;;;;;;6.90;4.10;;;;;;;;;;5051758;28;20262;-74
2021/08/08 07:04:26;;;;;;;6.70;4.43;;;;;;;;;;5047472;28;20201;-72
2021/08/08 07:06:53;;;;;;;8.57;4.40;;;;;;;;;;5058065;28;20199;-73
2021/08/08 07:09:21;;;;;;;6.70;3.80;;;;;;;;;;5050623;28;20334;-71
2021/08/08 07:11:49;;;;;;;5.00;3.50;;;;;;;;;;5048273;28;20192;-70
2021/08/08 07:14:25;;;;;;;6.90;4.17;;;;;;;;;;5053097;28;20222;-72
2021/08/08 07:16:53;;;;;;;6.03;3.57;;;;;;;;;;5060556;28;20298;-72
2021/08/08 07:19:23;;;;;;;4.13;3.10;;;;;;;;;;5061467;28;20245;-74
2021/08/08 07:21:51;;;;;;;32.63;27.17;;;;;;;;;;5051478;28;20543;-75
2021/08/08 07:24:19;;;;;;;120.93;108.37;;;;;;;;;;5049657;28;20659;-72
2021/08/08 07:26:46;;;;;;;14.00;12.13;;;;;;;;;;5062223;28;20931;-74
2021/08/08 07:29:13;;;;;;;8.83;6.53;;;;;;;;;;5049977;28;20639;-77
2021/08/08 07:31:54;;;;;;;19.73;15.50;;;;;;;;;;5050952;28;20208;-75
2021/08/08 07:34:21;;;;;;;39.17;35.03;;;;;;;;;;5052423;28;20192;-74
2021/08/08 07:36:49;;;;;;;12.83;11.53;;;;;;;;;;5057231;28;20656;-76
2021/08/08 07:39:16;;;;;;;10.23;4.73;;;;;;;;;;5064273;28;20207;-76
2021/08/08 07:41:43;;;;;;;4.83;3.70;;;;;;;;;;5055609;28;20232;-77
2021/08/08 07:44:10;;;;;;;6.50;3.30;;;;;;;;;;5049337;28;20211;-72
2021/08/08 07:46:37;;;;;;;7.43;5.03;;;;;;;;;;5050570;28;20639;-72
2021/08/08 07:49:04;;;;;;;4.43;3.23;;;;;;;;;;5052489;28;20201;-72
2021/08/08 07:51:31;;;;;;;9.33;3.60;;;;;;;;;;5069463;28;20200;-76
2021/08/08 07:53:58;;;;;;;8.67;3.50;;;;;;;;;;5056051;28;20197;-72
2021/08/08 07:56:25;;;;;;;4.37;3.00;;;;;;;;;;5048720;28;20221;-77
2021/08/08 07:58:53;;;;;;;3.90;3.03;;;;;;;;;;5048620;28;20192;-72
2021/08/08 08:01:21;;;;;;;3.50;2.93;;;;;;;;;;5049076;28;20216;-76
2021/08/08 08:03:48;;;;;;;6.17;3.03;;;;;;;;;;5049068;28;20242;-75
2021/08/08 08:06:15;;;;;;;5.57;2.77;;;;;;;;;;5064842;28;20202;-72
2021/08/08 08:08:42;;;;;;;5.17;2.70;;;;;;;;;;5068368;28;20577;-73
2021/08/08 08:11:10;;;;;;;4.87;3.70;;;;;;;;;;5068377;28;20200;-72
2021/08/08 08:13:37;;;;;;;3.47;2.50;;;;;;;;;;5068246;28;20625;-70
2021/08/08 08:16:05;;;;;;;4.37;2.57;;;;;;;;;;5066336;28;20219;-71
2021/08/08 08:18:32;;;;;;;3.00;2.30;;;;;;;;;;5053539;28;20628;-71
2021/08/08 08:20:59;;;;;;;5.00;2.73;;;;;;;;;;5052598;28;20257;-72
2021/08/08 08:23:25;;;;;;;5.30;2.47;;;;;;;;;;5070785;28;20203;-72
2021/08/08 08:25:52;;;;;;;168.07;150.27;;;;;;;;;;5063465;28;20280;-72
2021/08/08 08:28:19;;;;;;;27.07;24.57;;;;;;;;;;5051626;28;20239;-72
2021/08/08 08:30:46;;;;;;;5.03;3.40;;;;;;;;;;5057766;28;20208;-73
2021/08/08 08:33:13;;;;;;;2.43;2.17;;;;;;;;;;5054475;28;20565;-70
2021/08/08 08:35:42;;;;;;;5.27;2.40;;;;;;;;;;5071803;28;20215;-69
2021/08/08 08:38:09;;;;;;;2.83;2.63;;;;;;;;;;5059377;28;20189;-73
2021/08/08 08:40:37;;;;;;;4.67;2.13;;;;;;;;;;5065470;28;20208;-68
2021/08/08 08:43:06;;;;;;;2.87;2.50;;;;;;;;;;5052113;28;20224;-70
2021/08/08 08:45:34;;;;;;;7.73;5.97;;;;;;;;;;5068432;28;20234;-74
2021/08/08 08:48:02;;;;;;;96.33;86.23;;;;;;;;;;5071400;28;20550;-74
2021/08/08 08:50:30;;;;;;;7.57;2.97;;;;;;;;;;5070951;28;20191;-73
2021/08/08 08:52:57;;;;;;;6.23;2.90;;;;;;;;;;5054855;28;20186;-69
2021/08/08 08:55:24;;;;;;;4.27;2.20;;;;;;;;;;5051936;28;20184;-73
2021/08/08 08:57:51;;;;;;;3.93;2.83;;;;;;;;;;5055305;28;20220;-72
2021/08/08 09:00:18;;;;;;;2.90;2.03;;;;;;;;;;5072166;28;20662;-72
2021/08/08 09:02:45;;;;;;;3.70;2.50;;;;;;;;;;5070002;28;20758;-75
2021/08/08 09:05:12;;;;;;;6.53;2.70;;;;;;;;;;5059536;28;20187;-73
2021/08/08 09:07:40;;;;;;;5.93;2.53;;;;;;;;;;5057942;28;20204;-71
2021/08/08 09:10:12;;;;;;;3.53;2.47;;;;;;;;;;5051937;28;20188;-73
2021/08/08 09:12:39;;;;;;;2.60;1.90;;;;;;;;;;5051707;28;20196;-72
2021/08/08 09:15:08;;;;;;;4.07;2.37;;;;;;;;;;5054827;28;20605;-74
2021/08/08 09:17:43;;;;;;;2.97;2.20;;;;;;;;;;5051117;28;20282;-75
2021/08/08 09:20:11;;;;;;;4.73;2.63;;;;;;;;;;5049890;28;20201;-73
2021/08/08 09:22:44;;;;;;;2.70;2.33;;;;;;;;;;5049392;28;20193;-75
2021/08/08 09:25:21;;;;;;;4.37;2.30;;;;;;;;;;5049678;28;20604;-74
2021/08/08 09:27:49;;;;;;;33.50;30.17;;;;;;;;;;5050885;28;20254;-72
2021/08/08 09:30:18;;;;;;;8.77;3.50;;;;;;;;;;5063805;28;20334;-69
2021/08/08 09:32:47;;;;;;;3.03;1.90;;;;;;;;;;5050628;28;20594;-70
2021/08/08 09:35:19;;;;;;;6.70;1.97;;;;;;;;;;5067795;28;20192;-70
2021/08/08 09:38:00;;;;;;;4.27;2.13;;;;;;;;;;5071436;28;20782;-72
2021/08/08 09:40:27;;;;;;;6.50;2.30;;;;;;;;;;5057339;28;20534;-73
2021/08/08 09:42:53;;;;;;;2.60;2.20;;;;;;;;;;5063800;28;20573;-67
2021/08/08 09:45:33;;;;;;;3.07;2.40;;;;;;;;;;5051040;28;20197;-69
2021/08/08 09:48:00;;;;;;;2.77;2.20;;;;;;;;;;5063805;28;20946;-70
2021/08/08 09:50:29;;;;;;;3.13;2.10;;;;;;;;;;5062711;28;20207;-68
2021/08/08 09:53:00;;;;;;;3.10;1.93;;;;;;;;;;5057271;28;20191;-69
2021/08/08 09:55:29;;;;;;;5.07;2.07;;;;;;;;;;5060449;28;20299;-71
2021/08/08 09:57:55;;;;;;;3.10;2.23;;;;;;;;;;5065453;28;20189;-71
2021/08/08 10:00:23;;;;;;;3.50;2.07;;;;;;;;;;5051145;28;20204;-68
2021/08/08 10:02:50;;;;;;;3.83;2.10;;;;;;;;;;5051587;28;20193;-74
2021/08/08 10:05:17;;;;;;;2.77;2.00;;;;;;;;;;5058712;28;20306;-68
2021/08/08 10:07:45;;;;;;;3.60;1.97;;;;;;;;;;5057940;28;20212;-67
2021/08/08 10:10:12;;;;;;;4.60;2.20;;;;;;;;;;5056893;28;20190;-70
2021/08/08 10:12:39;;;;;;;4.20;2.10;;;;;;;;;;5059430;28;20574;-68
2021/08/08 10:15:06;;;;;;;3.63;2.33;;;;;;;;;;5050793;28;20312;-71
2021/08/08 10:17:34;;;;;;;22.37;19.97;;;;;;;;;;5050985;28;20220;-67
2021/08/08 10:20:02;;;;;;;4.43;3.57;;;;;;;;;;5050281;28;20196;-68
2021/08/08 10:22:32;;;;;;;5.23;3.47;;;;;;;;;;5051695;28;20204;-68
2021/08/08 10:24:59;;;;;;;7.13;6.10;;;;;;;;;;5052330;28;20242;-70
2021/08/08 10:27:26;;;;;;;8.33;6.30;;;;;;;;;;5053688;28;20200;-66
2021/08/08 10:29:55;;;;;;;7.60;6.00;;;;;;;;;;5060675;28;20202;-69
2021/08/08 10:32:25;;;;;;;6.10;4.00;;;;;;;;;;5053167;28;20722;-67
2021/08/08 10:34:52;;;;;;;1293.63;889.50;;;;;;;;;;5052407;28;20231;-68
2021/08/08 10:37:23;;;;;;;1319.43;810.70;;;;;;;;;;5053407;28;20208;-71
2021/08/08 10:39:50;;;;;;;449.70;379.43;;;;;;;;;;5050985;28;20196;-67
2021/08/08 10:42:18;;;;;;;753.70;649.47;;;;;;;;;;5053272;28;20227;-71
2021/08/08 10:44:48;;;;;;;991.53;692.43;;;;;;;;;;5069593;28;20207;-72
2021/08/08 10:47:25;;;;;;;295.40;224.90;;;;;;;;;;5058440;28;20199;-67
2021/08/08 10:49:52;;;;;;;639.10;451.00;;;;;;;;;;5055628;28;20195;-69
2021/08/08 10:52:19;;;;;;;676.13;482.23;;;;;;;;;;5055969;28;20200;-68
2021/08/08 10:54:47;;;;;;;568.73;468.80;;;;;;;;;;5048679;28;20222;-70
2021/08/08 10:57:15;;;;;;;668.97;563.77;;;;;;;;;;5051755;28;20220;-70
2021/08/08 10:59:46;;;;;;;148.47;102.77;;;;;;;;;;5056894;28;20198;-70
2021/08/08 11:02:16;;;;;;;122.97;87.83;;;;;;;;;;5056551;28;20196;-69
2021/08/08 11:04:43;;;;;;;356.67;231.03;;;;;;;;;;5065651;28;20199;-69
2021/08/08 11:07:11;;;;;;;372.53;231.70;;;;;;;;;;5061370;28;20670;-69
2021/08/08 11:09:39;;;;;;;1999.90;977.97;;;;;;;;;;5067211;28;20203;-71
2021/08/08 11:12:07;;;;;;;397.33;358.00;;;;;;;;;;5052383;28;20200;-68
2021/08/08 11:14:34;;;;;;;21.67;19.37;;;;;;;;;;5049861;28;20781;-70
2021/08/08 11:17:02;;;;;;;7.40;6.33;;;;;;;;;;5063249;28;20216;-76
2021/08/08 11:19:33;;;;;;;7.40;4.00;;;;;;;;;;5049455;28;20196;-73
2021/08/08 11:22:12;;;;;;;9.23;3.40;;;;;;;;;;5053204;28;20196;-76
2021/08/08 11:24:40;;;;;;;4.77;3.47;;;;;;;;;;5049541;28;20271;-74
2021/08/08 11:27:07;;;;;;;5.13;3.73;;;;;;;;;;5056327;28;20196;-71
2021/08/08 11:29:35;;;;;;;6.63;2.97;;;;;;;;;;5068003;28;20253;-73
2021/08/08 11:32:06;;;;;;;12.03;7.87;;;;;;;;;;5056921;28;20591;-81
2021/08/08 11:34:33;;;;;;;15.27;7.50;;;;;;;;;;5061094;28;20275;-75
2021/08/08 11:37:00;;;;;;;111.17;66.70;;;;;;;;;;5063748;28;20223;-73
2021/08/08 11:39:32;;;;;;;8.87;5.67;;;;;;;;;;5053105;28;20196;-71
2021/08/08 11:42:10;;;;;;;7.40;6.70;;;;;;;;;;5055462;28;20751;-69
2021/08/08 11:44:43;;;;;;;6.40;4.73;;;;;;;;;;5055097;28;20215;-72
2021/08/08 11:47:10;;;;;;;2.60;2.30;;;;;;;;;;5057573;28;20291;-71
2021/08/08 11:49:41;;;;;;;25.93;15.67;;;;;;;;;;5051950;28;20665;-69
2021/08/08 11:52:11;;;;;;;8.10;5.73;;;;;;;;;;5052361;28;20184;-71
2021/08/08 11:54:37;;;;;;;13.37;10.40;;;;;;;;;;5050847;28;20780;-71
2021/08/08 11:57:04;;;;;;;5.80;3.50;;;;;;;;;;5055166;28;20220;-67
2021/08/08 11:59:33;;;;;;;341.50;216.17;;;;;;;;;;5049506;28;20725;-68
2021/08/08 12:02:01;;;;;;;480.10;243.47;;;;;;;;;;5050013;28;20220;-71
2021/08/08 12:04:34;;;;;;;24.07;17.70;;;;;;;;;;5055049;28;20303;-70
2021/08/08 12:07:03;;;;;;;5.73;3.20;;;;;;;;;;5055233;28;20196;-70
2021/08/08 12:09:31;;;;;;;97.53;59.93;;;;;;;;;;5047625;28;20204;-68
2021/08/08 12:11:58;;;;;;;12.27;9.03;;;;;;;;;;5048438;28;20196;-70
2021/08/08 12:14:35;;;;;;;32.50;24.33;;;;;;;;;;5060997;28;20195;-74
2021/08/08 12:17:22;;;;;;;123.63;83.23;;;;;;;;;;5052462;28;20227;-69
2021/08/08 12:19:58;;;;;;;49.80;27.47;;;;;;;;;;5046816;28;20666;-70
2021/08/08 12:22:25;;;;;;;108.17;70.50;;;;;;;;;;5050108;28;20196;-68
2021/08/08 12:25:06;;;;;;;11.47;8.13;;;;;;;;;;5050314;28;20193;-71
2021/08/08 12:27:34;;;;;;;397.77;281.57;;;;;;;;;;5057937;28;20204;-71
2021/08/08 12:30:01;;;;;;;300.97;208.07;;;;;;;;;;5063045;28;20198;-66
2021/08/08 12:32:33;;;;;;;47.17;34.07;;;;;;;;;;5054303;28;20196;-67
2021/08/08 12:35:05;;;;;;;5.17;4.10;;;;;;;;;;5058601;28;20249;-72
2021/08/08 12:37:32;;;;;;;22.27;18.70;;;;;;;;;;5051280;28;20673;-68
2021/08/08 12:40:12;;;;;;;20.73;18.73;;;;;;;;;;5059335;28;20286;-70
2021/08/08 12:42:39;;;;;;;10.00;7.43;;;;;;;;;;5052853;28;20277;-72
2021/08/08 12:45:08;;;;;;;2.47;2.27;;;;;;;;;;5051118;28;21036;-69
2021/08/08 12:47:35;;;;;;;3.23;2.73;;;;;;;;;;5047576;28;20671;-69
2021/08/08 12:50:12;;;;;;;3.17;2.53;;;;;;;;;;5057305;28;20200;-68
2021/08/08 12:52:39;;;;;;;7.70;2.57;;;;;;;;;;5051674;28;20204;-69
2021/08/08 12:55:06;;;;;;;4.50;2.30;;;;;;;;;;5048701;28;20181;-69
2021/08/08 12:57:32;;;;;;;4.83;2.10;;;;;;;;;;5063438;28;20222;-70
2021/08/08 12:59:59;;;;;;;2.47;2.17;;;;;;;;;;5054095;28;20200;-70
2021/08/08 13:02:26;;;;;;;2.33;2.10;;;;;;;;;;5056537;28;20288;-69
2021/08/08 13:04:53;;;;;;;6.80;2.33;;;;;;;;;;5061227;28;20223;-70
2021/08/08 13:07:20;;;;;;;4.40;2.17;;;;;;;;;;5062740;28;20200;-70
2021/08/08 13:09:46;;;;;;;4.30;2.20;;;;;;;;;;5059717;28;20258;-69
2021/08/08 13:12:15;;;;;;;6.40;4.83;;;;;;;;;;5050714;28;20242;-69
2021/08/08 13:14:41;;;;;;;3.97;3.57;;;;;;;;;;5049008;28;20192;-69
2021/08/08 13:17:08;;;;;;;3.70;2.30;;;;;;;;;;5058758;28;20240;-70
2021/08/08 13:19:36;;;;;;;4.50;2.70;;;;;;;;;;5062743;28;20192;-69
2021/08/08 13:22:05;;;;;;;3.20;2.43;;;;;;;;;;5053764;28;20713;-69
2021/08/08 13:24:33;;;;;;;4.90;2.83;;;;;;;;;;5059925;28;20222;-69
2021/08/08 13:27:00;;;;;;;3.40;2.47;;;;;;;;;;5056547;28;20196;-67
2021/08/08 13:29:27;;;;;;;2.70;2.20;;;;;;;;;;5055663;28;20185;-68
2021/08/08 13:31:54;;;;;;;2.50;2.30;;;;;;;;;;5050153;28;20231;-70
2021/08/08 13:34:21;;;;;;;4.23;2.23;;;;;;;;;;5051801;28;20686;-71
2021/08/08 13:36:47;;;;;;;4.40;2.33;;;;;;;;;;5067260;28;20208;-70
2021/08/08 13:39:14;;;;;;;3.40;2.60;;;;;;;;;;5066426;28;20193;-70
2021/08/08 13:41:41;;;;;;;3.03;2.37;;;;;;;;;;5062512;28;20660;-69
2021/08/08 13:44:09;;;;;;;2.50;2.30;;;;;;;;;;5068404;28;20287;-71
2021/08/08 13:46:36;;;;;;;6.63;5.03;;;;;;;;;;5053358;28;20206;-69
2021/08/08 13:49:02;;;;;;;25.27;22.67;;;;;;;;;;5061305;28;20191;-69
2021/08/08 13:51:29;;;;;;;9.40;4.63;;;;;;;;;;5053553;28;20769;-70
2021/08/08 13:53:56;;;;;;;3.57;2.60;;;;;;;;;;5066149;28;20282;-70
2021/08/08 13:56:23;;;;;;;5.87;2.87;;;;;;;;;;5055553;28;20712;-69
2021/08/08 13:58:50;;;;;;;5.30;2.90;;;;;;;;;;5052694;28;20698;-68
2021/08/08 14:01:17;;;;;;;3.00;2.70;;;;;;;;;;5055159;28;20207;-69
2021/08/08 14:03:44;;;;;;;4.60;2.70;;;;;;;;;;5054277;28;20728;-70
2021/08/08 14:06:11;;;;;;;4.03;2.83;;;;;;;;;;5057971;28;20197;-67
2021/08/08 14:08:38;;;;;;;4.40;2.70;;;;;;;;;;5054799;28;20200;-71
2021/08/08 14:11:05;;;;;;;5.57;2.60;;;;;;;;;;5064365;28;20191;-69
2021/08/08 14:13:32;;;;;;;3.43;2.63;;;;;;;;;;5057617;28;20748;-68
2021/08/08 14:15:59;;;;;;;8.83;2.70;;;;;;;;;;5069544;28;20198;-70
2021/08/08 14:18:26;;;;;;;3.97;2.70;;;;;;;;;;5062741;28;20306;-72
2021/08/08 14:20:53;;;;;;;2.97;2.67;;;;;;;;;;5054964;28;20203;-71
2021/08/08 14:23:20;;;;;;;7.03;2.87;;;;;;;;;;5058860;28;20245;-71
2021/08/08 14:25:47;;;;;;;3.77;2.80;;;;;;;;;;5052718;28;20192;-70
2021/08/08 14:28:13;;;;;;;6.87;2.77;;;;;;;;;;5060839;28;20207;-69
2021/08/08 14:30:40;;;;;;;3.57;2.60;;;;;;;;;;5054636;28;20196;-70
2021/08/08 14:33:07;;;;;;;6.17;2.67;;;;;;;;;;5057209;28;20196;-70
2021/08/08 14:35:34;;;;;;;4.27;2.70;;;;;;;;;;5061782;28;20200;-69
2021/08/08 14:38:01;;;;;;;3.43;2.47;;;;;;;;;;5055869;28;20251;-70
2021/08/08 14:40:27;;;;;;;12.13;3.07;;;;;;;;;;5061996;28;20689;-68
2021/08/08 14:42:54;;;;;;;5.90;3.10;;;;;;;;;;5059426;28;20615;-68
2021/08/08 14:45:21;;;;;;;4.87;3.00;;;;;;;;;;5058165;28;20215;-67